Time;durP1;ratioP1;P1;durP2;ratioP2;P2;SDS_P1;SDS_P2;PMS_P1;PMS_P2;Temp;Humidity;BMP_temperature;BMP_pressure;BME280_temperature;BME280_humidity;BME280_pressure;Samples;Min_cycle;Max_cycle;Signal;HPM_P1;HPM_P2
2023/01/29 00:01:33;;;;;;;48.08;15.90;;;;;;;1.08;64.60;100197.66;6087448;23;20529;-83
2023/01/29 00:04:16;;;;;;;49.83;17.27;;;;;;;-0.15;64.07;100011.34;6115678;23;20017;-83
2023/01/29 00:06:55;;;;;;;50.58;15.02;;;;;;;1.10;64.34;100196.88;6093985;23;20037;-84
2023/01/29 00:09:26;;;;;;;50.83;16.05;;;;;;;0.37;64.16;100067.84;6114183;23;20017;-83
2023/01/29 00:11:58;;;;;;;47.97;16.35;;;;;;;0.25;64.81;100043.56;6093637;23;20028;-84
2023/01/29 00:14:30;;;;;;;52.70;15.32;;;;;;;0.30;64.40;100038.59;6124717;23;20028;-85
2023/01/29 00:17:00;;;;;;;46.08;16.35;;;;;;;0.15;64.63;100023.53;6110905;23;20014;-85
2023/01/29 00:19:32;;;;;;;49.50;15.60;;;;;;;-0.22;65.07;99940.31;6135330;23;20021;-85
2023/01/29 00:22:01;;;;;;;51.67;15.93;;;;;;;0.99;64.79;100155.47;6135030;23;20100;-83
2023/01/29 00:24:35;;;;;;;46.75;15.48;;;;;;;1.04;63.85;100171.00;6113235;23;20096;-84
2023/01/29 00:27:05;;;;;;;52.53;15.43;;;;;;;0.82;64.51;100124.13;6086267;23;20036;-86
2023/01/29 00:29:33;;;;;;;41.78;15.05;;;;;;;0.31;64.46;100049.72;6131332;23;20097;-82
2023/01/29 00:32:00;;;;;;;42.00;14.88;;;;;;;1.16;64.80;100198.78;6108481;23;20526;-84
2023/01/29 00:34:26;;;;;;;50.45;14.50;;;;;;;1.14;64.68;100185.91;6157613;23;20022;-84
2023/01/29 00:37:03;;;;;;;42.38;13.80;;;;;;;0.41;64.15;100049.22;6139910;23;20358;-84
2023/01/29 00:39:37;;;;;;;38.95;14.48;;;;;;;0.10;64.25;99999.47;6117573;23;20018;-83
2023/01/29 00:44:58;;;;;;;41.72;14.85;;;;;;;0.15;64.78;100028.66;6098334;23;20033;-81
2023/01/29 00:47:34;;;;;;;39.05;13.85;;;;;;;0.14;64.51;100029.47;6121121;23;20014;-83
2023/01/29 00:50:07;;;;;;;48.00;13.90;;;;;;;0.27;64.23;100070.09;6150267;23;20081;-81
2023/01/29 00:52:35;;;;;;;42.22;14.07;;;;;;;0.77;64.65;100122.22;6151554;23;20021;-82
2023/01/29 00:55:04;;;;;;;37.13;13.18;;;;;;;0.31;64.70;100070.19;6123974;23;20076;-83
2023/01/29 00:57:34;;;;;;;40.40;14.55;;;;;;;-0.34;64.32;99961.19;6128869;23;20009;-83
2023/01/29 01:00:05;;;;;;;37.80;13.48;;;;;;;0.41;64.17;100092.75;6152306;23;20022;-82
2023/01/29 01:05:17;;;;;;;36.95;12.85;;;;;;;0.34;64.24;100067.72;6135722;23;20017;-83
2023/01/29 01:07:48;;;;;;;40.95;13.52;;;;;;;0.17;64.32;100026.16;6158859;23;20013;-85
2023/01/29 01:10:23;;;;;;;37.55;12.60;;;;;;;-0.86;64.23;99868.03;6131437;23;20025;-83
2023/01/29 01:12:55;;;;;;;39.33;14.05;;;;;;;0.84;64.94;100150.66;6131633;23;20375;-82
2023/01/29 01:15:22;;;;;;;40.33;14.23;;;;;;;-0.25;64.26;99986.22;6156211;23;20100;-83
2023/01/29 01:17:57;;;;;;;37.28;13.95;;;;;;;0.10;64.37;100031.06;6130722;23;20300;-83
2023/01/29 01:20:42;;;;;;;38.03;13.77;;;;;;;-0.41;64.41;99949.84;6129971;23;20021;-84
2023/01/29 01:23:08;;;;;;;42.72;14.15;;;;;;;0.01;64.68;100015.34;6104034;23;20017;-83
2023/01/29 01:25:35;;;;;;;39.88;14.07;;;;;;;-0.34;64.16;99944.16;6104287;23;20017;-83
2023/01/29 01:28:01;;;;;;;37.13;12.98;;;;;;;-0.50;64.92;99929.03;6105386;23;20104;-84
2023/01/29 01:30:27;;;;;;;36.78;13.50;;;;;;;0.22;64.17;100034.91;6104901;23;20049;-83
2023/01/29 01:32:54;;;;;;;38.83;13.43;;;;;;;-0.06;64.46;100000.59;6081585;23;20112;-82
2023/01/29 01:35:20;;;;;;;41.03;13.85;;;;;;;0.14;64.48;100034.59;6131163;23;20017;-83
2023/01/29 01:37:46;;;;;;;38.88;13.75;;;;;;;0.50;64.31;100103.34;6105891;23;20093;-81
2023/01/29 01:40:22;;;;;;;38.88;13.63;;;;;;;0.76;64.64;100139.28;6083932;23;20017;-83
2023/01/29 01:42:51;;;;;;;38.72;14.00;;;;;;;0.22;64.93;100048.56;6107180;23;20013;-86
2023/01/29 01:45:31;;;;;;;34.20;12.57;;;;;;;0.53;64.16;100103.47;6106791;23;20104;-83
2023/01/29 01:48:11;;;;;;;41.78;13.77;;;;;;;0.58;64.41;100112.16;6105355;23;20021;-82
2023/01/29 01:50:46;;;;;;;37.67;14.48;;;;;;;0.72;64.71;100125.47;6106306;23;20480;-84
2023/01/29 01:53:18;;;;;;;40.00;14.18;;;;;;;0.01;64.16;100023.03;6106635;23;20037;-83
2023/01/29 01:55:54;;;;;;;40.05;13.43;;;;;;;0.58;64.75;100142.03;6107865;23;20030;-83
2023/01/29 01:58:40;;;;;;;39.55;13.32;;;;;;;-0.71;64.80;99917.19;6107059;23;20525;-81
2023/01/29 02:01:12;;;;;;;35.55;12.77;;;;;;;-0.40;65.33;99974.63;6104568;23;20021;-83
2023/01/29 02:09:45;;;;;;;34.05;12.77;;;;;;;0.29;65.18;100114.53;6123379;23;20033;-83
2023/01/29 02:12:15;;;;;;;35.15;13.00;;;;;;;-0.54;64.76;99993.66;6083522;23;20045;-82
2023/01/29 02:14:45;;;;;;;38.40;14.20;;;;;;;-0.72;65.26;99958.88;6083011;23;20091;-82
2023/01/29 02:17:44;;;;;;;;;;;;;;;;;;;;;
2023/01/29 02:20:30;;;;;;;30.65;12.77;;;;;;;-0.64;65.13;99947.28;6105270;23;20048;-81
2023/01/29 02:23:11;;;;;;;38.20;14.48;;;;;;;0.38;65.39;100103.75;6082534;23;20045;-83
2023/01/29 02:25:44;;;;;;;35.13;13.55;;;;;;;0.22;65.36;100078.41;6080554;23;20364;-83
2023/01/29 02:28:26;;;;;;;28.55;11.73;;;;;;;0.18;65.62;100048.38;6080916;23;20024;-83
2023/01/29 02:31:11;;;;;;;31.00;12.30;;;;;;;0.60;65.47;100094.31;6105158;23;20355;-81
2023/01/29 02:33:45;;;;;;;23.20;9.88;;;;;;;0.62;64.96;100097.78;6080435;23;20021;-85
2023/01/29 02:36:18;;;;;;;25.40;10.77;;;;;;;0.71;64.60;100094.69;6104336;23;20017;-82
2023/01/29 02:39:06;;;;;;;24.45;11.07;;;;;;;-0.04;65.25;99961.44;6104283;23;20025;-82
2023/01/29 02:41:51;;;;;;;21.80;9.85;;;;;;;0.24;65.34;99976.91;6105371;23;20017;-83
2023/01/29 02:44:23;;;;;;;26.75;10.50;;;;;;;0.94;64.93;100074.13;6081775;23;20021;-84
2023/01/29 02:47:16;;;;;;;27.10;10.10;;;;;;;0.80;65.65;100046.31;6106960;23;20021;-83
2023/01/29 02:49:51;;;;;;;26.48;10.45;;;;;;;0.51;64.60;100017.13;6082532;23;20017;-82
2023/01/29 02:52:36;;;;;;;26.75;10.52;;;;;;;0.51;65.26;100001.75;6065822;23;20100;-84
2023/01/29 02:55:20;;;;;;;24.25;10.60;;;;;;;0.59;64.68;100024.25;6078766;23;20022;-83
2023/01/29 02:58:11;;;;;;;20.63;9.93;;;;;;;1.00;64.92;100094.81;6080481;23;20021;-83
2023/01/29 03:01:02;;;;;;;19.60;9.43;;;;;;;0.08;64.57;99916.66;6056617;23;20018;-83
2023/01/29 03:03:55;;;;;;;23.30;9.13;;;;;;;0.99;65.02;100063.22;6057079;23;20017;-83
2023/01/29 03:06:48;;;;;;;18.50;9.23;;;;;;;0.19;64.62;99919.59;6080188;23;20362;-82
2023/01/29 03:09:47;;;;;;;19.73;8.68;;;;;;;1.00;64.25;100049.56;6072473;23;20045;-84
2023/01/29 03:12:34;;;;;;;16.63;8.10;;;;;;;-0.29;63.77;99856.50;6102336;23;20018;-82
2023/01/29 03:15:13;;;;;;;15.23;8.23;;;;;;;-0.59;64.47;99829.00;6102082;23;20045;-85
2023/01/29 03:18:12;;;;;;;15.13;8.55;;;;;;;-0.39;64.07;99856.16;6076718;23;20109;-83
2023/01/29 03:20:57;;;;;;;14.88;7.97;;;;;;;-0.73;63.88;99811.47;6078839;23;20028;-83
2023/01/29 03:33:04;;;;;;;11.43;5.93;;;;;;;0.13;63.80;99910.88;6077389;23;20021;-84
2023/01/29 03:35:38;;;;;;;10.48;5.80;;;;;;;0.48;63.08;99992.31;6077904;23;20482;-82
2023/01/29 03:38:17;;;;;;;12.38;6.03;;;;;;;0.18;63.86;99935.78;6052753;23;20021;-81
2023/01/29 03:41:01;;;;;;;12.07;5.80;;;;;;;-0.10;63.77;99889.56;6054262;23;20021;-82
2023/01/29 03:43:45;;;;;;;12.35;5.45;;;;;;;-0.17;63.06;99870.59;6076945;23;20045;-81
2023/01/29 03:47:59;;;;;;;8.75;4.90;;;;;;;0.58;62.72;100013.97;6042623;23;20028;-83
2023/01/29 03:50:44;;;;;;;7.57;4.53;;;;;;;0.41;63.12;100009.13;6064438;23;20026;-81
2023/01/29 03:54:10;;;;;;;9.18;4.95;;;;;;;0.33;63.14;100002.88;6098280;23;20033;-82
2023/01/29 03:56:57;;;;;;;7.93;4.25;;;;;;;0.32;63.51;99997.69;6076242;23;20367;-82
2023/01/29 03:59:33;;;;;;;7.70;3.65;;;;;;;-0.37;62.83;99898.03;6079458;23;20022;-82
2023/01/29 04:02:29;;;;;;;6.35;3.60;;;;;;;-0.37;62.79;99910.81;6081152;23;20029;-81
2023/01/29 04:05:08;;;;;;;8.45;4.40;;;;;;;-0.16;63.05;99950.78;6101503;23;20025;-81
2023/01/29 04:08:00;;;;;;;8.10;4.13;;;;;;;-0.54;62.91;99870.94;6102986;23;20105;-83
2023/01/29 04:10:35;;;;;;;8.48;3.78;;;;;;;-0.20;62.32;99934.41;6085597;23;20069;-82
2023/01/29 04:13:06;;;;;;;8.52;4.60;;;;;;;-0.49;62.73;99883.09;6104576;23;20530;-83
2023/01/29 04:15:42;;;;;;;7.03;3.95;;;;;;;-0.90;62.10;99818.53;6100833;23;20101;-82
2023/01/29 04:18:12;;;;;;;6.72;3.70;;;;;;;-0.20;62.22;99933.56;6095968;23;20076;-84
2023/01/29 04:21:08;;;;;;;7.18;3.47;;;;;;;-0.80;62.73;99830.81;6106564;23;20021;-83
2023/01/29 04:23:36;;;;;;;9.20;3.80;;;;;;;0.09;62.51;99967.88;6076624;23;20014;-83
2023/01/29 04:26:21;;;;;;;7.32;3.47;;;;;;;0.10;62.34;99987.53;6077039;23;20479;-85
2023/01/29 04:29:30;;;;;;;8.18;3.97;;;;;;;-0.70;62.06;99838.84;6077406;23;20018;-83
2023/01/29 04:32:17;;;;;;;6.32;3.22;;;;;;;-0.76;62.43;99819.91;6078464;23;20050;-84
2023/01/29 04:35:06;;;;;;;7.95;4.53;;;;;;;0.14;62.37;99970.59;6077401;23;20022;-83
2023/01/29 04:38:06;;;;;;;7.10;4.38;;;;;;;-0.91;62.56;99804.00;6076568;23;20397;-83
2023/01/29 04:40:58;;;;;;;;;;;;;;;0.12;61.48;99962.00;6110335;23;20018;-83
2023/01/29 04:43:45;;;;;;;8.45;3.78;;;;;;;-0.25;61.99;99915.50;6081861;23;19919;-85
2023/01/29 04:46:24;;;;;;;9.43;3.85;;;;;;;0.07;61.84;99960.97;6077286;23;20076;-82
2023/01/29 04:49:44;;;;;;;5.95;3.90;;;;;;;-1.35;61.61;99729.13;6079382;23;20017;-83
2023/01/29 04:52:33;;;;;;;7.47;4.05;;;;;;;0.01;61.88;99968.44;6076524;23;20030;-83
2023/01/29 04:55:01;;;;;;;7.10;4.18;;;;;;;-0.01;61.97;99956.44;6101500;23;20096;-82
2023/01/29 04:58:03;;;;;;;7.32;4.10;;;;;;;-0.01;61.58;99948.78;6076535;23;20025;-82
2023/01/29 05:00:58;;;;;;;7.97;3.85;;;;;;;-0.64;61.80;99862.94;6099916;23;20123;-83
2023/01/29 05:04:01;;;;;;;7.10;3.65;;;;;;;-0.05;62.11;99974.19;6102679;23;20096;-83
2023/01/29 05:06:36;;;;;;;7.28;3.92;;;;;;;-1.54;61.44;99721.63;6055912;23;20456;-84
2023/01/29 05:10:26;;;;;;;6.90;3.50;;;;;;;-1.55;61.61;99706.25;6077806;23;20118;-85
2023/01/29 05:13:54;;;;;;;6.03;3.33;;;;;;;-1.54;61.38;99726.72;6092189;23;20104;-83
2023/01/29 05:16:48;;;;;;;3.60;2.42;;;;;;;-0.01;61.27;99963.28;6075899;23;20018;-84
2023/01/29 05:19:40;;;;;;;5.47;3.28;;;;;;;-1.62;61.78;99692.38;6075217;23;20026;-83
2023/01/29 05:22:21;;;;;;;9.18;3.42;;;;;;;-0.22;61.70;99930.06;6050806;23;20018;-83
2023/01/29 05:24:49;;;;;;;5.45;3.20;;;;;;;-1.16;61.49;99766.44;6071523;23;20022;-82
2023/01/29 05:30:47;;;;;;;4.65;2.95;;;;;;;-0.93;61.18;99788.59;6075791;23;20018;-83
2023/01/29 05:33:42;;;;;;;7.40;3.53;;;;;;;-0.05;61.22;99936.69;6076217;23;20097;-84
2023/01/29 05:36:14;;;;;;;6.13;3.25;;;;;;;-1.55;61.47;99696.06;6054944;23;20037;-83
2023/01/29 05:43:38;;;;;;;6.80;3.40;;;;;;;-0.05;61.70;99946.91;5980843;23;20099;-83
2023/01/29 05:46:24;;;;;;;7.00;3.90;;;;;;;-1.01;60.83;99805.34;5987732;23;20424;-82
2023/01/29 05:49:35;;;;;;;6.15;3.67;;;;;;;-1.09;61.20;99776.94;6115058;23;20014;-83
2023/01/29 05:55:35;;;;;;;7.82;4.25;;;;;;;-0.28;61.01;99934.97;6050630;23;20018;-83
2023/01/29 05:58:07;;;;;;;8.13;4.25;;;;;;;-1.11;61.12;99810.91;6086591;23;20018;-81
2023/01/29 06:00:33;;;;;;;7.22;4.25;;;;;;;-1.01;61.40;99796.78;6106378;23;20337;-83
2023/01/29 06:04:04;;;;;;;7.55;4.40;;;;;;;-0.02;61.41;99961.53;6082608;23;20097;-81
2023/01/29 06:07:38;;;;;;;;;;;;;;;;;;;;;
2023/01/29 06:20:09;;;;;;;6.43;3.88;;;;;;;-1.63;60.77;99654.91;6140537;23;20040;-85
2023/01/29 06:22:54;;;;;;;6.82;3.97;;;;;;;-0.42;61.32;99860.28;6218153;23;20062;-83
2023/01/29 06:25:26;;;;;;;10.10;3.47;;;;;;;-0.73;60.80;99803.78;6213352;23;20159;-83
2023/01/29 06:28:19;;;;;;;7.25;3.90;;;;;;;-0.86;60.71;99766.69;6178578;23;20044;-86
2023/01/29 06:31:01;;;;;;;5.60;3.30;;;;;;;-1.57;60.82;99660.25;6186639;23;20016;-85
2023/01/29 06:38:57;;;;;;;7.60;4.53;;;;;;;-0.39;61.17;99835.72;6072327;23;20335;-84
2023/01/29 06:46:11;;;;;;;8.10;4.25;;;;;;;0.20;60.97;99935.00;6116814;23;20053;-84
2023/01/29 06:49:44;;;;;;;;;;;;;;;;;;;;;
2023/01/29 06:53:50;;;;;;;7.63;3.77;;;;;;;-1.09;60.53;99747.97;6208122;23;20086;-86
2023/01/29 06:56:25;;;;;;;6.05;3.50;;;;;;;-1.40;61.09;99690.63;6164502;23;20418;-87
2023/01/29 06:59:12;;;;;;;6.45;3.78;;;;;;;-0.97;60.73;99784.19;6176474;23;20095;-85
2023/01/29 07:06:25;;;;;;;;;;;;;;;;;;;;;
2023/01/29 07:09:22;;;;;;;5.65;3.47;;;;;;;-0.12;60.51;99918.50;6233165;23;20019;-84
2023/01/29 07:12:41;;;;;;;7.55;4.03;;;;;;;-0.11;60.63;99910.84;6135749;23;20016;-85
2023/01/29 07:16:09;;;;;;;9.70;4.72;;;;;;;-1.05;60.78;99780.50;6175805;23;20477;-84
2023/01/29 07:19:35;;;;;;;8.43;4.70;;;;;;;-0.89;60.93;99768.28;6208169;23;20023;-85
2023/01/29 07:23:01;;;;;;;10.40;5.65;;;;;;;0.02;60.89;99896.81;6087065;23;20033;-84
2023/01/29 07:26:38;;;;;;;12.60;5.78;;;;;;;-0.88;60.64;99759.81;6003089;23;20023;-84
2023/01/29 07:34:42;;;;;;;16.05;7.25;;;;;;;0.17;60.72;99888.81;6054287;23;20014;-84
2023/01/29 07:47:10;;;;;;;;;;;;;;;;;;;;;
2023/01/29 07:51:07;;;;;;;;;;;;;;;;;;;;;
2023/01/29 07:54:54;;;;;;;27.45;10.50;;;;;;;-0.75;61.37;99744.09;5918720;23;19948;-84
2023/01/29 08:01:51;;;;;;;23.92;9.82;;;;;;;-1.11;61.11;99647.44;6047267;23;20029;-85
2023/01/29 08:04:22;;;;;;;20.92;8.60;;;;;;;-0.29;61.06;99795.09;6133715;23;20107;-85
2023/01/29 08:06:54;;;;;;;20.02;8.07;;;;;;;-0.45;61.19;99763.91;6192600;23;20020;-85
2023/01/29 08:13:59;;;;;;;22.05;8.80;;;;;;;0.47;60.74;99887.25;6099233;23;20045;-86
2023/01/29 08:35:05;;;;;;;18.70;8.77;;;;;;;0.22;61.23;99805.38;6071433;23;20042;-85
2023/01/29 08:37:37;;;;;;;20.60;8.35;;;;;;;0.03;61.41;99767.22;6048952;23;20030;-82
2023/01/29 08:49:47;;;;;;;13.20;5.90;;;;;;;0.68;60.81;99844.41;6016957;23;20027;-86
2023/01/29 08:52:17;;;;;;;15.93;7.68;;;;;;;0.13;60.97;99747.09;5994772;23;20027;-84
2023/01/29 08:54:49;;;;;;;13.98;6.10;;;;;;;-0.04;60.57;99697.06;5996379;23;20051;-85
2023/01/29 08:59:06;;;;;;;12.40;5.47;;;;;;;0.84;60.08;99835.50;6006431;23;20020;-84
2023/01/29 09:05:41;;;;;;;13.38;5.40;;;;;;;1.09;60.47;99848.22;6074545;23;20441;-84
2023/01/29 09:08:18;;;;;;;12.00;5.10;;;;;;;1.12;59.69;99838.91;6073797;23;20022;-82
2023/01/29 09:10:50;;;;;;;9.88;4.85;;;;;;;-0.46;59.99;99586.63;6160460;23;20017;-82
2023/01/29 09:13:26;;;;;;;9.13;5.10;;;;;;;0.22;59.69;99703.00;6164647;23;20477;-83
2023/01/29 09:16:04;;;;;;;7.40;3.67;;;;;;;1.09;59.77;99843.94;6118021;23;20017;-84
2023/01/29 09:18:53;;;;;;;7.47;3.42;;;;;;;1.14;59.61;99846.66;6146414;23;20021;-85
2023/01/29 09:30:26;;;;;;;4.68;2.60;;;;;;;0.80;59.12;99748.28;5902450;24;20025;-87
2023/01/29 09:32:54;;;;;;;5.78;2.97;;;;;;;-0.23;58.77;99560.03;5880162;24;20022;-85
2023/01/29 09:40:15;;;;;;;4.28;2.42;;;;;;;1.37;58.04;99808.88;5882499;24;20021;-83
2023/01/29 09:42:57;;;;;;;7.47;2.80;;;;;;;0.22;58.11;99633.88;5883523;24;20021;-86
2023/01/29 09:46:18;;;;;;;4.85;2.45;;;;;;;1.17;58.37;99804.03;5917987;23;20027;-82
2023/01/29 09:53:03;;;;;;;6.55;2.60;;;;;;;-0.18;57.52;99572.13;5993891;23;20082;-83
2023/01/29 09:56:34;;;;;;;4.10;2.33;;;;;;;0.46;57.13;99689.22;6005520;23;20056;-82
2023/01/29 09:59:21;;;;;;;2.92;2.22;;;;;;;-0.15;57.70;99599.50;6048724;23;20021;-86
2023/01/29 10:02:49;;;;;;;4.03;2.30;;;;;;;0.34;57.50;99655.53;6138022;23;20411;-87
2023/01/29 10:05:27;;;;;;;4.78;2.47;;;;;;;-0.39;57.41;99561.22;6109845;23;20021;-86
2023/01/29 10:08:17;;;;;;;4.28;2.50;;;;;;;0.85;57.85;99760.38;6136842;23;20020;-84
2023/01/29 10:12:07;;;;;;;;;;;;;;;;;;;;;
2023/01/29 10:15:45;;;;;;;4.47;2.00;;;;;;;0.96;56.73;99772.66;6012710;23;20023;-85
2023/01/29 10:26:57;;;;;;;5.33;2.33;;;;;;;0.18;56.23;99638.88;6121901;23;20462;-86
2023/01/29 10:29:34;;;;;;;3.65;2.42;;;;;;;0.18;56.68;99661.91;6161230;23;20017;-84
2023/01/29 10:32:23;;;;;;;4.47;2.03;;;;;;;0.36;56.77;99670.16;6162992;23;20118;-85
2023/01/29 10:35:27;;;;;;;4.40;2.28;;;;;;;-0.70;57.29;99499.78;6163633;23;20020;-85
2023/01/29 10:38:47;;;;;;;4.75;2.40;;;;;;;0.68;56.66;99664.25;6148818;23;20017;-86
2023/01/29 10:41:57;;;;;;;3.63;2.38;;;;;;;1.09;56.82;99708.09;6156077;23;20017;-84
2023/01/29 10:45:31;;;;;;;3.28;2.10;;;;;;;1.07;56.28;99703.78;6146065;23;20087;-83
2023/01/29 10:48:32;;;;;;;4.53;2.20;;;;;;;1.09;56.29;99705.53;6158925;23;20353;-83
2023/01/29 10:51:50;;;;;;;3.33;2.10;;;;;;;1.08;56.10;99691.00;6162146;23;20080;-81
2023/01/29 10:54:33;;;;;;;2.92;2.13;;;;;;;1.12;56.59;99682.56;6154797;23;20376;-83
2023/01/29 10:57:14;;;;;;;5.18;2.13;;;;;;;1.14;55.90;99678.34;6111979;23;20076;-83
2023/01/29 10:59:59;;;;;;;4.00;1.95;;;;;;;1.10;56.06;99645.75;6136477;23;20013;-83
2023/01/29 11:02:25;;;;;;;3.95;2.40;;;;;;;0.97;55.59;99592.47;6171997;23;20021;-83
2023/01/29 11:04:51;;;;;;;3.58;2.22;;;;;;;0.98;55.61;99583.94;6142791;23;20065;-83
2023/01/29 11:07:21;;;;;;;3.00;2.05;;;;;;;0.70;55.88;99544.78;6162043;23;20020;-84
2023/01/29 11:09:55;;;;;;;3.63;2.20;;;;;;;1.19;55.00;99646.03;6136958;23;20021;-82
2023/01/29 11:12:26;;;;;;;3.95;2.28;;;;;;;1.06;54.96;99628.56;6136131;23;20378;-82
2023/01/29 11:14:54;;;;;;;4.90;2.70;;;;;;;1.17;54.83;99641.66;6185596;23;20021;-80
2023/01/29 11:17:24;;;;;;;6.15;2.55;;;;;;;1.07;55.39;99630.31;6185875;23;20022;-79
2023/01/29 11:19:54;;;;;;;3.47;2.17;;;;;;;1.15;55.37;99644.19;6184775;23;20017;-79
2023/01/29 11:22:25;;;;;;;3.92;2.17;;;;;;;1.04;55.00;99636.22;6185582;23;20049;-79
2023/01/29 11:25:19;;;;;;;5.83;2.60;;;;;;;0.95;54.88;99642.78;6155827;23;20021;-79
2023/01/29 11:27:54;;;;;;;4.43;2.50;;;;;;;0.78;54.81;99612.44;6158288;23;20035;-78
2023/01/29 11:30:27;;;;;;;3.97;2.05;;;;;;;0.79;54.52;99624.41;6155543;23;20017;-79
2023/01/29 11:32:59;;;;;;;4.50;2.67;;;;;;;0.87;54.82;99632.34;6181454;23;20071;-79
2023/01/29 11:35:29;;;;;;;4.75;2.50;;;;;;;0.53;54.52;99606.66;6107257;23;20107;-79
2023/01/29 11:38:17;;;;;;;3.47;2.30;;;;;;;0.72;54.18;99643.88;6157671;23;20154;-81
2023/01/29 11:40:44;;;;;;;4.55;3.05;;;;;;;0.51;54.88;99615.09;6157669;23;20027;-79
2023/01/29 11:43:30;;;;;;;4.00;2.28;;;;;;;0.51;55.00;99627.88;6136886;23;20512;-79
2023/01/29 11:46:12;;;;;;;6.97;2.80;;;;;;;0.58;55.15;99640.06;6183485;23;20466;-79
2023/01/29 11:48:53;;;;;;;7.65;2.90;;;;;;;0.49;55.43;99622.75;6184750;23;20016;-79
2023/01/29 11:55:19;;;;;;;4.60;2.55;;;;;;;0.59;55.43;99634.97;6161622;23;20036;-80
2023/01/29 11:57:50;;;;;;;6.10;2.90;;;;;;;0.35;54.58;99600.97;6160528;23;20021;-79
2023/01/29 12:00:30;;;;;;;4.47;2.70;;;;;;;0.55;55.31;99622.88;6160600;23;20064;-80
2023/01/29 12:03:26;;;;;;;4.57;2.80;;;;;;;0.35;55.05;99575.38;6111851;23;20028;-79
2023/01/29 12:06:36;;;;;;;5.07;3.30;;;;;;;0.59;55.45;99621.31;6115029;23;20095;-82
2023/01/29 12:09:28;;;;;;;4.63;2.92;;;;;;;-0.98;55.29;99399.25;6188104;23;20013;-80
2023/01/29 12:11:54;;;;;;;6.32;3.22;;;;;;;0.39;55.50;99642.09;6138835;23;20012;-80
2023/01/29 12:14:28;;;;;;;7.03;4.03;;;;;;;0.38;55.20;99632.66;6186071;23;20020;-80
2023/01/29 12:17:25;;;;;;;7.88;3.70;;;;;;;0.39;55.33;99639.53;6186914;23;20052;-80
2023/01/29 12:20:00;;;;;;;5.63;3.20;;;;;;;0.28;54.97;99605.94;6188513;23;20017;-80
2023/01/29 12:22:55;;;;;;;6.53;3.40;;;;;;;0.39;56.28;99613.03;6159057;23;20107;-79
2023/01/29 12:25:27;;;;;;;5.57;3.10;;;;;;;0.38;56.06;99606.19;6159121;23;20629;-78
2023/01/29 12:28:32;;;;;;;9.38;4.03;;;;;;;0.49;55.21;99612.50;6184404;23;20064;-80
2023/01/29 12:31:26;;;;;;;7.07;3.25;;;;;;;0.51;55.62;99609.97;6137048;23;20554;-80
2023/01/29 12:34:18;;;;;;;6.80;3.58;;;;;;;0.28;55.39;99579.44;6158638;23;20024;-80
2023/01/29 12:36:58;;;;;;;5.60;3.05;;;;;;;0.53;55.44;99604.09;6159266;23;20067;-81
2023/01/29 12:39:29;;;;;;;6.25;2.92;;;;;;;0.68;55.92;99611.31;6134808;23;20017;-81
2023/01/29 12:42:03;;;;;;;6.50;3.25;;;;;;;0.76;55.63;99611.53;6159728;23;20020;-83
2023/01/29 12:44:51;;;;;;;7.40;3.90;;;;;;;0.77;55.85;99608.16;6157987;23;20035;-82
2023/01/29 12:47:30;;;;;;;6.63;3.60;;;;;;;0.13;56.22;99487.72;6134966;23;20027;-81
2023/01/29 12:50:07;;;;;;;6.97;3.60;;;;;;;0.02;55.64;99495.09;6161408;23;20114;-82
2023/01/29 12:52:42;;;;;;;5.90;3.45;;;;;;;0.17;55.75;99527.94;6157726;23;20024;-81
2023/01/29 12:55:32;;;;;;;5.38;3.35;;;;;;;0.41;56.16;99570.44;6184420;23;20044;-79
2023/01/29 12:58:11;;;;;;;6.60;3.55;;;;;;;0.47;56.33;99574.84;6158179;23;20363;-79
2023/01/29 13:00:42;;;;;;;8.45;3.92;;;;;;;0.53;56.22;99592.94;6133944;23;20095;-80
2023/01/29 13:03:48;;;;;;;8.13;4.20;;;;;;;0.52;56.28;99594.66;6186764;23;20012;-79
2023/01/29 13:06:20;;;;;;;9.35;3.75;;;;;;;0.47;56.62;99587.66;6162349;23;20017;-80
2023/01/29 13:09:09;;;;;;;7.25;4.00;;;;;;;0.28;56.18;99575.22;6134522;23;20099;-81
2023/01/29 13:11:41;;;;;;;7.05;3.92;;;;;;;0.41;55.98;99596.03;6133177;23;20079;-81
2023/01/29 13:14:27;;;;;;;8.98;4.28;;;;;;;0.47;56.83;99603.00;6133842;23;20115;-79
2023/01/29 13:17:31;;;;;;;7.22;3.92;;;;;;;0.42;56.12;99603.78;6136608;23;20017;-81
2023/01/29 13:20:29;;;;;;;;;;;;;;;;;;;;;
2023/01/29 13:23:01;;;;;;;6.55;3.83;;;;;;;0.04;56.29;99542.06;6132484;23;20071;-80
2023/01/29 13:25:30;;;;;;;7.47;4.30;;;;;;;0.28;56.65;99580.34;6182661;23;20100;-81
2023/01/29 13:28:04;;;;;;;8.18;4.75;;;;;;;0.06;56.81;99548.09;6184978;23;20032;-81
2023/01/29 13:30:33;;;;;;;8.57;4.18;;;;;;;0.25;56.37;99590.47;6186307;23;20013;-80
2023/01/29 13:33:07;;;;;;;9.18;3.80;;;;;;;-0.03;56.33;99547.84;6186087;23;20070;-79
2023/01/29 13:40:24;;;;;;;;;;;;;;;;;;;;;
2023/01/29 13:43:35;;;;;;;9.30;5.05;;;;;;;-1.10;57.19;99393.78;6133000;23;20040;-83
2023/01/29 13:47:37;;;;;;;;;;;;;;;;;;;;;
2023/01/29 13:50:38;;;;;;;9.13;5.15;;;;;;;-1.19;57.41;99379.03;6157320;23;20049;-79
2023/01/29 13:54:02;;;;;;;8.45;4.40;;;;;;;-0.18;57.69;99549.09;6117586;23;20094;-81
2023/01/29 13:57:02;;;;;;;9.25;4.03;;;;;;;0.08;57.72;99568.63;6161239;23;20103;-81
2023/01/29 14:00:08;;;;;;;10.63;5.32;;;;;;;0.04;57.66;99580.44;6155802;23;20025;-81
2023/01/29 14:02:34;;;;;;;10.35;4.97;;;;;;;-0.19;57.77;99552.47;6157854;23;20390;-80
2023/01/29 14:05:28;;;;;;;8.82;5.13;;;;;;;0.08;57.80;99569.50;6158091;23;20029;-80
2023/01/29 14:08:12;;;;;;;10.07;4.53;;;;;;;0.02;58.22;99563.31;6183477;23;20067;-80
2023/01/29 14:10:41;;;;;;;8.82;5.15;;;;;;;-0.05;58.12;99570.81;6183181;23;20354;-80
2023/01/29 14:13:20;;;;;;;11.40;5.25;;;;;;;-0.08;58.50;99573.28;6086026;23;20100;-79
2023/01/29 14:16:09;;;;;;;9.68;5.15;;;;;;;-0.05;58.46;99570.81;6159709;23;20017;-81
2023/01/29 14:18:45;;;;;;;9.63;5.13;;;;;;;-0.21;58.29;99543.88;6115684;23;20017;-79
2023/01/29 14:21:31;;;;;;;10.35;5.03;;;;;;;-0.05;58.01;99559.72;6109664;23;20023;-79
2023/01/29 14:24:10;;;;;;;10.45;5.45;;;;;;;-0.05;58.50;99559.72;6188577;23;20451;-81
2023/01/29 14:26:44;;;;;;;10.60;4.57;;;;;;;-0.14;59.05;99547.53;6157564;23;20036;-80
2023/01/29 14:29:15;;;;;;;11.13;4.90;;;;;;;0.00;58.96;99555.63;6161315;23;20523;-81
2023/01/29 14:31:47;;;;;;;10.38;5.38;;;;;;;-0.17;58.90;99525.25;6157494;23;20017;-79
2023/01/29 14:34:33;;;;;;;10.18;5.00;;;;;;;-0.04;58.82;99538.44;6133604;23;20402;-79
2023/01/29 14:37:21;;;;;;;8.85;4.78;;;;;;;0.02;58.55;99530.91;6134195;23;20036;-79
2023/01/29 14:39:53;;;;;;;10.57;5.05;;;;;;;0.09;59.13;99539.66;6136518;23;20040;-80
2023/01/29 14:42:31;;;;;;;9.73;4.75;;;;;;;-0.27;59.27;99473.78;6158525;23;20477;-81
2023/01/29 14:45:00;;;;;;;8.90;4.47;;;;;;;0.18;59.49;99541.63;6158841;23;20025;-80
2023/01/29 14:47:32;;;;;;;8.88;4.63;;;;;;;0.19;58.67;99543.34;6160132;23;20021;-79
2023/01/29 14:50:02;;;;;;;9.93;4.88;;;;;;;0.09;58.83;99534.56;6135167;23;20021;-80
2023/01/29 14:52:39;;;;;;;11.63;4.90;;;;;;;0.12;59.08;99543.19;6163861;23;20410;-78
2023/01/29 14:55:14;;;;;;;8.82;4.60;;;;;;;-0.06;58.72;99515.34;6109654;23;20263;-80
2023/01/29 14:57:41;;;;;;;8.00;4.50;;;;;;;0.07;58.75;99541.31;6159755;23;20049;-79
2023/01/29 15:00:21;;;;;;;8.82;4.70;;;;;;;-0.20;59.22;99491.06;6158464;23;20383;-78
2023/01/29 15:03:35;;;;;;;11.20;4.95;;;;;;;-0.03;59.06;99553.81;6186076;23;20095;-81
2023/01/29 15:06:21;;;;;;;10.60;4.97;;;;;;;-0.56;59.35;99448.22;6110218;23;20017;-80
2023/01/29 15:09:29;;;;;;;11.40;4.75;;;;;;;-0.05;59.15;99540.09;6135265;23;20024;-79
2023/01/29 15:13:09;;;;;;;10.45;5.63;;;;;;;-0.58;59.63;99429.44;6138654;23;20044;-80
2023/01/29 15:16:21;;;;;;;13.80;5.47;;;;;;;0.10;58.87;99549.09;6056310;23;20016;-81
2023/01/29 15:18:54;;;;;;;11.60;4.93;;;;;;;0.12;59.41;99548.28;6113007;23;20466;-80
2023/01/29 15:25:06;;;;;;;10.45;4.85;;;;;;;-0.79;59.50;99387.06;6123480;23;20017;-82
2023/01/29 15:28:10;;;;;;;10.43;5.38;;;;;;;-0.38;59.74;99455.56;6132147;23;20025;-79
2023/01/29 15:31:44;;;;;;;10.35;5.05;;;;;;;-0.75;59.57;99401.66;6119727;23;20056;-80
2023/01/29 15:34:28;;;;;;;11.23;5.90;;;;;;;-0.35;59.17;99474.44;6130995;23;20025;-81
2023/01/29 15:36:54;;;;;;;15.63;6.43;;;;;;;0.02;59.73;99541.16;6159700;23;20021;-80
2023/01/29 15:39:25;;;;;;;12.10;5.70;;;;;;;-0.76;59.58;99394.81;6105145;23;20340;-79
2023/01/29 15:42:11;;;;;;;13.50;6.05;;;;;;;0.18;60.16;99554.41;6158525;23;20017;-83
2023/01/29 15:47:36;;;;;;;14.40;6.30;;;;;;;0.14;59.45;99541.53;6141044;23;20017;-80